createdAt,value
2018-01-06T00:01:20.242Z,1003.62
2018-01-06T00:02:47.448Z,1003.61
2018-01-06T00:04:14.760Z,1003.59
2018-01-06T00:05:42.037Z,1003.59
2018-01-06T00:07:09.402Z,1003.58
2018-01-06T00:08:36.623Z,1003.60
2018-01-06T00:10:03.964Z,1003.60
2018-01-06T00:11:31.342Z,1003.59
2018-01-06T00:12:58.708Z,1003.61
2018-01-06T00:14:25.799Z,1003.66
2018-01-06T00:15:53.009Z,1003.66
2018-01-06T00:17:20.295Z,1003.75
2018-01-06T00:18:47.401Z,1003.73
2018-01-06T00:20:14.494Z,1003.79
2018-01-06T00:21:41.713Z,1003.80
2018-01-06T00:23:08.771Z,1003.79
2018-01-06T00:24:36.219Z,1003.85
2018-01-06T00:26:03.303Z,1003.97
2018-01-06T00:27:30.645Z,1004.01
2018-01-06T00:28:58.069Z,1003.99
2018-01-06T00:30:25.232Z,1004.01
2018-01-06T00:31:52.497Z,1003.94
2018-01-06T00:33:19.650Z,1003.91
2018-01-06T00:34:46.992Z,1003.89
2018-01-06T00:36:14.310Z,1003.97
2018-01-06T00:37:41.586Z,1003.95
2018-01-06T00:39:08.922Z,1003.94
2018-01-06T00:40:36.339Z,1003.88
2018-01-06T00:42:03.417Z,1003.85
2018-01-06T00:43:30.764Z,1003.84
2018-01-06T00:44:57.983Z,1003.84
2018-01-06T00:46:25.131Z,1003.87
2018-01-06T00:47:52.430Z,1003.89
2018-01-06T00:49:19.621Z,1003.93
2018-01-06T00:50:46.866Z,1003.99
2018-01-06T00:52:14.038Z,1004.03
2018-01-06T00:53:41.389Z,1003.98
2018-01-06T00:55:08.482Z,1003.99
2018-01-06T00:56:35.789Z,1003.96
2018-01-06T00:58:03.055Z,1003.93
2018-01-06T00:59:30.457Z,1003.96
2018-01-06T01:00:57.736Z,1004.02
2018-01-06T01:02:24.931Z,1004.00
2018-01-06T01:03:52.169Z,1003.98
2018-01-06T01:05:19.343Z,1004.03
2018-01-06T01:06:46.596Z,1004.02
2018-01-06T01:08:13.855Z,1004.05
2018-01-06T01:09:41.129Z,1004.07
2018-01-06T01:11:08.251Z,1004.07
2018-01-06T01:12:35.494Z,1004.11
2018-01-06T01:14:02.828Z,1004.12
2018-01-06T01:15:30.190Z,1004.10
2018-01-06T01:16:57.541Z,1004.10
2018-01-06T01:18:24.725Z,1004.10
2018-01-06T01:19:51.792Z,1004.10
2018-01-06T01:21:19.166Z,1004.09
2018-01-06T01:22:46.279Z,1004.06
2018-01-06T01:24:13.693Z,1004.06
2018-01-06T01:25:41.136Z,1004.07
2018-01-06T01:27:08.191Z,1004.09
2018-01-06T01:28:35.367Z,1004.07
2018-01-06T01:30:02.602Z,1004.07
2018-01-06T01:31:29.980Z,1004.02
2018-01-06T01:32:57.167Z,1004.02
2018-01-06T01:34:24.573Z,1004.04
2018-01-06T01:35:51.780Z,1004.08
2018-01-06T01:37:19.370Z,1004.10
2018-01-06T01:38:46.608Z,1004.12
2018-01-06T01:40:14.076Z,1004.11
2018-01-06T01:41:41.547Z,1004.14
2018-01-06T01:43:08.673Z,1004.18
2018-01-06T01:44:35.915Z,1004.19
2018-01-06T01:46:03.179Z,1004.25
2018-01-06T01:47:30.585Z,1004.23
2018-01-06T01:48:57.745Z,1004.24
2018-01-06T01:50:25.057Z,1004.22
2018-01-06T01:51:52.277Z,1004.23
2018-01-06T01:53:19.602Z,1004.22
2018-01-06T01:54:46.815Z,1004.21
2018-01-06T01:56:13.949Z,1004.19
2018-01-06T01:57:41.141Z,1004.20
2018-01-06T01:59:08.461Z,1004.21
2018-01-06T02:00:35.622Z,1004.23
2018-01-06T02:02:02.825Z,1004.24
2018-01-06T02:03:30.140Z,1004.30
2018-01-06T02:04:57.433Z,1004.33
2018-01-06T02:06:24.739Z,1004.35
2018-01-06T02:07:51.957Z,1004.37
2018-01-06T02:09:19.233Z,1004.36
2018-01-06T02:10:46.294Z,1004.40
2018-01-06T02:12:13.431Z,1004.45
2018-01-06T02:13:40.766Z,1004.47
2018-01-06T02:15:07.971Z,1004.50
2018-01-06T02:16:35.419Z,1004.52
2018-01-06T02:18:02.869Z,1004.53
2018-01-06T02:19:30.110Z,1004.52
2018-01-06T02:20:57.445Z,1004.50
2018-01-06T02:22:24.666Z,1004.50
2018-01-06T02:23:52.011Z,1004.54
2018-01-06T02:25:19.278Z,1004.54
2018-01-06T02:26:46.461Z,1004.54
2018-01-06T02:28:13.861Z,1004.55
2018-01-06T02:29:41.241Z,1004.59
2018-01-06T02:31:08.415Z,1004.62
2018-01-06T02:32:35.756Z,1004.63
2018-01-06T02:34:03.049Z,1004.65
2018-01-06T02:35:30.322Z,1004.67
2018-01-06T02:36:57.596Z,1004.68
2018-01-06T02:38:24.854Z,1004.72
2018-01-06T02:39:52.159Z,1004.71
2018-01-06T02:41:19.392Z,1004.72
2018-01-06T02:42:46.510Z,1004.70
2018-01-06T02:44:13.775Z,1004.72
2018-01-06T02:45:41.000Z,1004.76
2018-01-06T02:47:08.220Z,1004.78
2018-01-06T02:48:35.435Z,1004.81
2018-01-06T02:50:02.750Z,1004.83
2018-01-06T02:51:30.106Z,1004.82
2018-01-06T02:52:57.385Z,1004.86
2018-01-06T02:54:24.610Z,1004.88
2018-01-06T02:55:51.985Z,1004.89
2018-01-06T02:57:19.407Z,1004.90
2018-01-06T02:58:46.630Z,1004.89
2018-01-06T03:00:14.044Z,1004.90
2018-01-06T03:01:41.391Z,1004.93
2018-01-06T03:03:08.779Z,1004.93
2018-01-06T03:04:36.067Z,1004.95
2018-01-06T03:06:03.445Z,1004.95
2018-01-06T03:07:30.703Z,1004.92
2018-01-06T03:08:57.929Z,1004.93
2018-01-06T03:10:25.224Z,1004.94
2018-01-06T03:11:52.499Z,1004.94
2018-01-06T03:13:19.596Z,1004.95
2018-01-06T03:14:46.756Z,1004.96
2018-01-06T03:16:14.170Z,1005.00
2018-01-06T03:17:41.506Z,1004.99
2018-01-06T03:19:08.712Z,1005.01
2018-01-06T03:20:36.107Z,1005.02
2018-01-06T03:22:03.320Z,1005.05
2018-01-06T03:23:30.554Z,1005.05
2018-01-06T03:24:57.826Z,1005.07
2018-01-06T03:26:25.095Z,1005.08
2018-01-06T03:27:52.414Z,1005.07
2018-01-06T03:29:19.670Z,1005.10
2018-01-06T03:30:46.672Z,1005.09
2018-01-06T03:32:14.043Z,1005.07
2018-01-06T03:33:41.381Z,1005.10
2018-01-06T03:35:08.771Z,1005.14
2018-01-06T03:36:36.118Z,1005.15
2018-01-06T03:38:03.362Z,1005.14
2018-01-06T03:39:30.490Z,1005.15
2018-01-06T03:40:57.638Z,1005.15
2018-01-06T03:42:24.717Z,1005.13
2018-01-06T03:43:52.022Z,1005.12
2018-01-06T03:45:19.244Z,1005.11
2018-01-06T03:46:46.456Z,1005.04
2018-01-06T03:48:13.641Z,1005.01
2018-01-06T03:49:40.733Z,1005.01
2018-01-06T03:51:07.944Z,1005.07
2018-01-06T03:52:35.143Z,1005.14
2018-01-06T03:54:02.436Z,1005.19
2018-01-06T03:55:29.781Z,1005.21
2018-01-06T03:56:57.142Z,1005.22
2018-01-06T03:58:24.234Z,1005.23
2018-01-06T03:59:51.452Z,1005.26
2018-01-06T04:01:18.633Z,1005.29
2018-01-06T04:02:45.902Z,1005.29
2018-01-06T04:04:13.106Z,1005.30
2018-01-06T04:05:40.379Z,1005.29
2018-01-06T04:07:07.628Z,1005.31
2018-01-06T04:08:35.017Z,1005.33
2018-01-06T04:10:02.183Z,1005.32
2018-01-06T04:11:29.536Z,1005.37
2018-01-06T04:12:56.733Z,1005.39
2018-01-06T04:14:24.025Z,1005.40
2018-01-06T04:15:51.148Z,1005.42
2018-01-06T04:17:18.508Z,1005.42
2018-01-06T04:18:45.583Z,1005.40
2018-01-06T04:20:12.886Z,1005.39
2018-01-06T04:21:43.287Z,1005.38
2018-01-06T04:23:07.519Z,1005.39
2018-01-06T04:24:34.745Z,1005.36
2018-01-06T04:26:02.078Z,1005.40
2018-01-06T04:27:29.259Z,1005.42
2018-01-06T04:28:56.418Z,1005.41
2018-01-06T04:30:23.591Z,1005.41
2018-01-06T04:31:50.990Z,1005.39
2018-01-06T04:33:18.336Z,1005.40
2018-01-06T04:34:45.411Z,1005.38
2018-01-06T04:36:12.742Z,1005.37
2018-01-06T04:37:40.119Z,1005.34
2018-01-06T04:39:07.516Z,1005.35
2018-01-06T04:40:34.794Z,1005.34
2018-01-06T04:42:02.171Z,1005.36
2018-01-06T04:43:29.418Z,1005.41
2018-01-06T04:44:56.707Z,1005.45
2018-01-06T04:46:23.877Z,1005.49
2018-01-06T04:47:51.021Z,1005.57
2018-01-06T04:49:18.304Z,1005.65
2018-01-06T04:50:45.528Z,1005.70
2018-01-06T04:52:12.799Z,1005.72
2018-01-06T04:53:40.085Z,1005.74
2018-01-06T04:55:07.240Z,1005.71
2018-01-06T04:56:34.465Z,1005.75
2018-01-06T04:58:01.862Z,1005.81
2018-01-06T04:59:29.229Z,1005.86
2018-01-06T05:00:56.389Z,1005.89
2018-01-06T05:02:23.659Z,1005.88
2018-01-06T05:03:51.097Z,1005.89
2018-01-06T05:05:18.407Z,1005.93
2018-01-06T05:06:45.632Z,1005.99
2018-01-06T05:08:12.917Z,1006.00
2018-01-06T05:09:40.033Z,1006.07
2018-01-06T05:11:07.189Z,1006.09
2018-01-06T05:12:34.458Z,1006.14
2018-01-06T05:14:01.731Z,1006.15
2018-01-06T05:15:28.875Z,1006.14
2018-01-06T05:16:56.245Z,1006.15
2018-01-06T05:18:23.620Z,1006.15
2018-01-06T05:19:50.778Z,1006.17
2018-01-06T05:21:18.020Z,1006.18
2018-01-06T05:22:45.157Z,1006.22
2018-01-06T05:24:12.468Z,1006.26
2018-01-06T05:25:39.585Z,1006.27
2018-01-06T05:27:07.019Z,1006.26
2018-01-06T05:28:34.278Z,1006.28
2018-01-06T05:30:01.644Z,1006.32
2018-01-06T05:31:28.956Z,1006.31
2018-01-06T05:32:56.340Z,1006.36
2018-01-06T05:34:23.672Z,1006.35
2018-01-06T05:35:50.811Z,1006.37
2018-01-06T05:37:18.070Z,1006.42
2018-01-06T05:38:45.157Z,1006.43
2018-01-06T05:40:12.397Z,1006.41
2018-01-06T05:41:39.630Z,1006.43
2018-01-06T05:43:14.768Z,1006.49
2018-01-06T05:44:33.847Z,1006.50
2018-01-06T05:46:01.029Z,1006.49
2018-01-06T05:47:28.232Z,1006.53
2018-01-06T05:48:55.503Z,1006.56
2018-01-06T05:50:22.558Z,1006.56
2018-01-06T05:51:49.793Z,1006.55
2018-01-06T05:53:17.032Z,1006.54
2018-01-06T05:54:44.297Z,1006.58
2018-01-06T05:56:11.687Z,1006.58
2018-01-06T05:57:39.005Z,1006.62
2018-01-06T05:59:06.216Z,1006.64
2018-01-06T06:00:33.446Z,1006.63
2018-01-06T06:02:00.570Z,1006.67
2018-01-06T06:03:27.847Z,1006.69
2018-01-06T06:04:55.029Z,1006.71
2018-01-06T06:06:22.348Z,1006.67
2018-01-06T06:07:49.735Z,1006.67
2018-01-06T06:09:17.126Z,1006.65
2018-01-06T06:10:44.338Z,1006.66
2018-01-06T06:12:11.535Z,1006.65
2018-01-06T06:13:38.834Z,1006.67
2018-01-06T06:15:05.952Z,1006.70
2018-01-06T06:16:33.362Z,1006.73
2018-01-06T06:18:00.642Z,1006.80
2018-01-06T06:19:27.965Z,1006.86
2018-01-06T06:20:55.100Z,1006.88
2018-01-06T06:22:22.316Z,1006.89
2018-01-06T06:23:49.558Z,1006.90
2018-01-06T06:25:16.911Z,1006.88
2018-01-06T06:26:43.986Z,1006.88
2018-01-06T06:28:11.265Z,1006.89
2018-01-06T06:29:38.598Z,1006.88
2018-01-06T06:31:05.804Z,1006.90
2018-01-06T06:32:33.086Z,1006.95
2018-01-06T06:34:00.285Z,1007.00
2018-01-06T06:35:27.600Z,1007.05
2018-01-06T06:36:54.876Z,1007.07
2018-01-06T06:38:21.947Z,1007.08
2018-01-06T06:39:49.260Z,1007.05
2018-01-06T06:41:16.345Z,1007.07
2018-01-06T06:42:43.661Z,1007.08
2018-01-06T06:44:10.845Z,1007.12
2018-01-06T06:45:37.985Z,1007.15
2018-01-06T06:47:05.243Z,1007.09
2018-01-06T06:48:32.425Z,1007.08
2018-01-06T06:49:59.695Z,1007.10
2018-01-06T06:51:26.855Z,1007.11
2018-01-06T06:52:54.184Z,1007.14
2018-01-06T06:54:21.390Z,1007.20
2018-01-06T06:55:48.763Z,1007.19
2018-01-06T06:57:15.775Z,1007.21
2018-01-06T06:58:42.974Z,1007.21
2018-01-06T07:00:10.019Z,1007.22
2018-01-06T07:01:37.071Z,1007.24
2018-01-06T07:03:04.253Z,1007.25
2018-01-06T07:04:31.302Z,1007.23
2018-01-06T07:05:58.544Z,1007.27
2018-01-06T07:07:25.860Z,1007.29
2018-01-06T07:08:52.924Z,1007.31
2018-01-06T07:10:20.020Z,1007.34
2018-01-06T07:11:47.158Z,1007.33
2018-01-06T07:13:14.494Z,1007.31
2018-01-06T07:14:41.759Z,1007.30
2018-01-06T07:16:09.011Z,1007.29
2018-01-06T07:17:35.994Z,1007.33
2018-01-06T07:19:03.040Z,1007.39
2018-01-06T07:20:30.415Z,1007.40
2018-01-06T07:21:57.452Z,1007.44
2018-01-06T07:23:24.709Z,1007.46
2018-01-06T07:24:51.940Z,1007.47
2018-01-06T07:26:19.021Z,1007.48
2018-01-06T07:27:46.247Z,1007.50
2018-01-06T07:29:13.464Z,1007.54
2018-01-06T07:30:40.591Z,1007.55
2018-01-06T07:32:07.721Z,1007.53
2018-01-06T07:33:34.590Z,1007.57
2018-01-06T07:35:01.855Z,1007.57
2018-01-06T07:36:29.293Z,1007.63
2018-01-06T07:37:56.474Z,1007.62
2018-01-06T07:39:23.788Z,1007.66
2018-01-06T07:40:50.922Z,1007.67
2018-01-06T07:42:17.900Z,1007.69
2018-01-06T07:43:45.145Z,1007.75
2018-01-06T07:45:12.276Z,1007.75
2018-01-06T07:46:39.498Z,1007.80
2018-01-06T07:48:06.711Z,1007.81
2018-01-06T07:49:34.118Z,1007.83
2018-01-06T07:51:01.123Z,1007.86
2018-01-06T07:52:28.522Z,1007.90
2018-01-06T07:53:55.911Z,1007.92
2018-01-06T07:55:23.151Z,1007.92
2018-01-06T07:56:50.386Z,1007.93
2018-01-06T07:58:17.624Z,1007.97
2018-01-06T07:59:44.778Z,1008.01
2018-01-06T08:01:12.222Z,1007.99
2018-01-06T08:02:39.185Z,1008.02
2018-01-06T08:04:06.474Z,1008.04
2018-01-06T08:05:33.843Z,1008.04
2018-01-06T08:07:01.220Z,1008.04
2018-01-06T08:08:28.513Z,1008.07
2018-01-06T08:09:55.697Z,1008.14
2018-01-06T08:11:22.997Z,1008.20
2018-01-06T08:12:50.185Z,1008.22
2018-01-06T08:14:17.516Z,1008.25
2018-01-06T08:15:44.798Z,1008.28
2018-01-06T08:17:11.936Z,1008.27
2018-01-06T08:18:39.184Z,1008.24
2018-01-06T08:20:06.415Z,1008.23
2018-01-06T08:21:33.816Z,1008.22
2018-01-06T08:23:01.092Z,1008.27
2018-01-06T08:24:28.306Z,1008.30
2018-01-06T08:25:55.577Z,1008.34
2018-01-06T08:27:22.768Z,1008.41
2018-01-06T08:28:50.044Z,1008.45
2018-01-06T08:30:17.374Z,1008.48
2018-01-06T08:31:44.708Z,1008.53
2018-01-06T08:33:11.992Z,1008.59
2018-01-06T08:34:39.260Z,1008.62
2018-01-06T08:36:06.564Z,1008.65
2018-01-06T08:37:33.898Z,1008.64
2018-01-06T08:39:00.992Z,1008.69
2018-01-06T08:40:28.310Z,1008.76
2018-01-06T08:41:55.462Z,1008.78
2018-01-06T08:43:22.852Z,1008.77
2018-01-06T08:44:49.797Z,1008.80
2018-01-06T08:46:16.981Z,1008.83
2018-01-06T08:47:44.163Z,1008.85
2018-01-06T08:49:11.263Z,1008.86
2018-01-06T08:50:38.523Z,1008.83
2018-01-06T08:52:05.729Z,1008.88
2018-01-06T08:53:33.112Z,1008.91
2018-01-06T08:55:00.416Z,1008.92
2018-01-06T08:56:27.677Z,1008.93
2018-01-06T08:57:54.902Z,1008.96
2018-01-06T08:59:22.173Z,1008.96
2018-01-06T09:00:49.411Z,1009.01
2018-01-06T09:02:16.473Z,1009.10
2018-01-06T09:03:43.624Z,1009.11
2018-01-06T09:05:11.111Z,1009.08
2018-01-06T09:06:38.460Z,1009.07
2018-01-06T09:08:05.699Z,1009.06
2018-01-06T09:09:32.951Z,1009.11
2018-01-06T09:11:00.366Z,1009.13
2018-01-06T09:12:27.570Z,1009.15
2018-01-06T09:13:55.048Z,1009.16
2018-01-06T09:15:22.280Z,1009.17
2018-01-06T09:16:49.443Z,1009.18
2018-01-06T09:18:16.667Z,1009.24
2018-01-06T09:19:43.858Z,1009.21
2018-01-06T09:21:10.887Z,1009.23
2018-01-06T09:22:38.164Z,1009.22
2018-01-06T09:24:05.532Z,1009.29
2018-01-06T09:25:32.953Z,1009.31
2018-01-06T09:27:00.098Z,1009.27
2018-01-06T09:28:27.496Z,1009.30
2018-01-06T09:29:54.578Z,1009.27
2018-01-06T09:31:21.927Z,1009.28
2018-01-06T09:32:49.288Z,1009.30
2018-01-06T09:34:16.029Z,1009.33
2018-01-06T09:35:43.461Z,1009.35
2018-01-06T09:37:10.781Z,1009.39
2018-01-06T09:38:38.129Z,1009.42
2018-01-06T09:40:05.368Z,1009.41
2018-01-06T09:41:32.584Z,1009.42
2018-01-06T09:43:00.042Z,1009.39
2018-01-06T09:44:27.433Z,1009.41
2018-01-06T09:45:54.668Z,1009.45
2018-01-06T09:47:21.957Z,1009.49
2018-01-06T09:48:49.052Z,1009.49
2018-01-06T09:50:16.203Z,1009.45
2018-01-06T09:51:43.407Z,1009.41
2018-01-06T09:53:10.778Z,1009.39
2018-01-06T09:54:37.858Z,1009.43
2018-01-06T09:56:05.200Z,1009.45
2018-01-06T09:57:32.180Z,1009.47
2018-01-06T09:58:59.350Z,1009.47
2018-01-06T10:00:26.739Z,1009.44
2018-01-06T10:01:54.040Z,1009.45
2018-01-06T10:03:21.218Z,1009.45
2018-01-06T10:04:48.424Z,1009.45
2018-01-06T10:06:15.628Z,1009.46
2018-01-06T10:07:43.111Z,1009.53
2018-01-06T10:09:10.533Z,1009.52
2018-01-06T10:10:37.839Z,1009.51
2018-01-06T10:12:05.129Z,1009.54
2018-01-06T10:13:32.335Z,1009.55
2018-01-06T10:14:59.716Z,1009.49
2018-01-06T10:16:27.066Z,1009.47
2018-01-06T10:17:54.222Z,1009.49
2018-01-06T10:19:21.363Z,1009.56
2018-01-06T10:20:48.513Z,1009.62
2018-01-06T10:22:15.599Z,1009.66
2018-01-06T10:23:43.027Z,1009.71
2018-01-06T10:25:10.611Z,1009.75
2018-01-06T10:26:37.983Z,1009.74
2018-01-06T10:28:05.068Z,1009.77
2018-01-06T10:29:32.323Z,1009.81
2018-01-06T10:30:59.505Z,1009.89
2018-01-06T10:32:26.921Z,1009.90
2018-01-06T10:33:54.293Z,1009.88
2018-01-06T10:35:21.381Z,1009.90
2018-01-06T10:36:48.746Z,1009.90
2018-01-06T10:38:15.812Z,1009.84
2018-01-06T10:39:43.143Z,1009.83
2018-01-06T10:41:10.336Z,1009.87
2018-01-06T10:42:37.483Z,1009.90
2018-01-06T10:44:04.936Z,1009.90
2018-01-06T10:45:32.121Z,1009.93
2018-01-06T10:46:59.417Z,1009.95
2018-01-06T10:48:26.797Z,1009.92
2018-01-06T10:49:53.862Z,1009.92
2018-01-06T10:51:21.148Z,1009.92
2018-01-06T10:52:48.306Z,1009.94
2018-01-06T10:54:15.381Z,1009.97
2018-01-06T10:55:42.738Z,1010.04
2018-01-06T10:57:10.124Z,1010.05
2018-01-06T10:58:37.240Z,1010.05
2018-01-06T11:00:04.433Z,1010.07
2018-01-06T11:01:31.868Z,1010.09
2018-01-06T11:02:59.212Z,1010.14
2018-01-06T11:04:26.374Z,1010.17
2018-01-06T11:05:53.633Z,1010.14
2018-01-06T11:07:20.966Z,1010.14
2018-01-06T11:08:48.176Z,1010.13
2018-01-06T11:10:15.079Z,1010.18
2018-01-06T11:11:42.420Z,1010.21
2018-01-06T11:13:09.776Z,1010.25
2018-01-06T11:14:37.093Z,1010.30
2018-01-06T11:16:04.370Z,1010.32
2018-01-06T11:17:31.703Z,1010.31
2018-01-06T11:18:59.278Z,1010.31
2018-01-06T11:20:26.338Z,1010.32
2018-01-06T11:21:53.704Z,1010.33
2018-01-06T11:23:21.086Z,1010.33
2018-01-06T11:24:48.234Z,1010.31
2018-01-06T11:26:15.325Z,1010.34
2018-01-06T11:27:42.602Z,1010.36
2018-01-06T11:29:09.888Z,1010.33
2018-01-06T11:30:37.253Z,1010.34
2018-01-06T12:44:57.240Z,1011.07
2018-01-06T12:46:24.411Z,1011.10
2018-01-06T12:47:51.650Z,1011.12
2018-01-06T12:49:18.996Z,1011.13
2018-01-06T12:50:46.179Z,1011.14
2018-01-06T12:52:13.421Z,1011.17
2018-01-06T12:53:40.913Z,1011.22
2018-01-06T12:55:08.143Z,1011.24
2018-01-06T12:56:35.622Z,1011.23
2018-01-06T12:58:02.884Z,1011.28
2018-01-06T12:59:27.367Z,1011.29
2018-01-06T13:00:57.578Z,1011.29
2018-01-06T13:02:24.771Z,1011.35
2018-01-06T13:03:52.165Z,1011.40
2018-01-06T13:05:19.528Z,1011.42
2018-01-06T13:06:43.925Z,1011.41
2018-01-06T13:08:14.337Z,1011.46
2018-01-06T13:09:41.579Z,1011.51
2018-01-06T13:11:08.696Z,1011.58
2018-01-06T13:12:36.112Z,1011.64
2018-01-06T13:14:03.223Z,1011.72
2018-01-06T13:15:30.694Z,1011.71
2018-01-06T13:16:57.835Z,1011.71
2018-01-06T13:18:24.998Z,1011.74
2018-01-06T13:19:52.541Z,1011.77
2018-01-06T13:21:19.703Z,1011.78
2018-01-06T13:22:47.213Z,1011.78
2018-01-06T13:24:14.444Z,1011.84
2018-01-06T13:25:41.478Z,1011.87
2018-01-06T13:27:08.939Z,1011.90
2018-01-06T13:28:36.094Z,1011.91
2018-01-06T13:30:03.434Z,1011.96
2018-01-06T13:31:30.765Z,1012.01
2018-01-06T13:32:58.033Z,1012.00
2018-01-06T13:34:25.253Z,1011.99
2018-01-06T13:35:52.657Z,1012.00
2018-01-06T13:37:19.914Z,1012.04
2018-01-06T13:38:47.233Z,1012.07
2018-01-06T13:40:14.465Z,1012.09
2018-01-06T13:41:41.490Z,1012.10
2018-01-06T13:43:08.813Z,1012.14
2018-01-06T13:44:36.326Z,1012.14
2018-01-06T13:46:03.340Z,1012.16
2018-01-06T13:47:30.501Z,1012.18
2018-01-06T13:48:57.936Z,1012.17
2018-01-06T13:50:25.088Z,1012.18
2018-01-06T13:51:52.421Z,1012.23
2018-01-06T13:53:19.484Z,1012.24
2018-01-06T13:54:46.898Z,1012.30
2018-01-06T13:56:13.659Z,1012.32
2018-01-06T13:57:40.979Z,1012.37
2018-01-06T13:59:08.431Z,1012.42
2018-01-06T14:00:35.521Z,1012.49
2018-01-06T14:02:02.862Z,1012.55
2018-01-06T14:03:30.109Z,1012.54
2018-01-06T14:04:57.200Z,1012.57
2018-01-06T14:06:24.582Z,1012.56
2018-01-06T14:07:51.839Z,1012.57
2018-01-06T14:09:19.270Z,1012.57
2018-01-06T14:10:46.552Z,1012.57
2018-01-06T14:12:13.484Z,1012.62
2018-01-06T14:13:40.793Z,1012.66
2018-01-06T14:15:08.446Z,1012.69
2018-01-06T14:16:35.582Z,1012.72
2018-01-06T14:18:02.479Z,1012.77
2018-01-06T14:19:29.538Z,1012.82
2018-01-06T14:20:56.835Z,1012.85
2018-01-06T14:22:23.992Z,1012.88
2018-01-06T14:23:51.505Z,1012.88
2018-01-06T14:25:18.818Z,1012.90
2018-01-06T14:26:45.966Z,1012.94
2018-01-06T14:28:12.982Z,1013.00
2018-01-06T14:29:40.237Z,1013.11
2018-01-06T14:31:07.725Z,1013.21
2018-01-06T14:32:34.838Z,1013.25
2018-01-06T14:34:02.098Z,1013.28
2018-01-06T14:35:29.195Z,1013.33
2018-01-06T14:36:56.428Z,1013.37
2018-01-06T14:38:23.398Z,1013.38
2018-01-06T14:39:50.717Z,1013.42
2018-01-06T14:41:18.184Z,1013.46
2018-01-06T14:42:45.284Z,1013.48
2018-01-06T14:44:12.217Z,1013.53
2018-01-06T14:45:39.256Z,1013.55
2018-01-06T14:47:06.604Z,1013.55
2018-01-06T14:48:33.666Z,1013.63
2018-01-06T14:50:01.004Z,1013.63
2018-01-06T14:51:28.100Z,1013.66
2018-01-06T14:52:55.407Z,1013.68
2018-01-06T14:54:22.879Z,1013.68
2018-01-06T14:55:50.003Z,1013.71
2018-01-06T14:57:17.689Z,1013.76
2018-01-06T14:58:44.780Z,1013.78
2018-01-06T15:00:11.646Z,1013.80
2018-01-06T15:01:38.994Z,1013.80
2018-01-06T15:03:06.085Z,1013.79
2018-01-06T15:04:33.248Z,1013.81
2018-01-06T15:06:00.550Z,1013.85
2018-01-06T15:07:27.620Z,1013.85
2018-01-06T15:08:54.667Z,1013.87
2018-01-06T15:10:21.958Z,1013.91
2018-01-06T15:11:49.331Z,1013.99
2018-01-06T15:13:16.552Z,1013.96
2018-01-06T15:14:43.803Z,1014.01
2018-01-06T15:16:10.880Z,1014.06
2018-01-06T15:17:38.060Z,1014.09
2018-01-06T15:19:05.569Z,1014.09
2018-01-06T15:20:32.525Z,1014.13
2018-01-06T15:21:59.721Z,1014.19
2018-01-06T15:23:26.819Z,1014.22
2018-01-06T15:24:54.058Z,1014.28
2018-01-06T15:26:21.304Z,1014.34
2018-01-06T15:27:49.012Z,1014.36
2018-01-06T15:29:15.556Z,1014.37
2018-01-06T15:30:42.730Z,1014.37
2018-01-06T15:32:09.889Z,1014.41
2018-01-06T15:33:37.481Z,1014.47
2018-01-06T15:35:04.210Z,1014.49
2018-01-06T15:36:30.950Z,1014.52
2018-01-06T15:37:58.143Z,1014.61
2018-01-06T15:39:25.309Z,1014.63
2018-01-06T15:40:52.688Z,1014.68
2018-01-06T15:42:20.034Z,1014.72
2018-01-06T15:43:47.359Z,1014.74
2018-01-06T15:45:14.639Z,1014.72
2018-01-06T15:46:41.998Z,1014.75
2018-01-06T15:48:09.489Z,1014.80
2018-01-06T15:49:37.431Z,1014.84
2018-01-06T15:51:03.960Z,1014.87
2018-01-06T15:52:31.167Z,1014.95
2018-01-06T15:53:58.334Z,1015.01
2018-01-06T15:55:25.730Z,1015.05
2018-01-06T15:56:52.889Z,1015.11
2018-01-06T15:58:20.148Z,1015.12
2018-01-06T15:59:47.381Z,1015.13
2018-01-06T16:01:14.487Z,1015.16
2018-01-06T16:02:41.631Z,1015.24
2018-01-06T16:04:09.473Z,1015.28
2018-01-06T16:05:36.578Z,1015.31
2018-01-06T16:07:03.844Z,1015.35
2018-01-06T16:08:30.965Z,1015.39
2018-01-06T16:09:58.317Z,1015.41
2018-01-06T16:11:25.635Z,1015.45
2018-01-06T16:12:52.772Z,1015.49
2018-01-06T16:14:19.984Z,1015.49
2018-01-06T16:15:47.329Z,1015.54
2018-01-06T16:17:14.653Z,1015.57
2018-01-06T16:18:41.915Z,1015.63
2018-01-06T16:20:08.602Z,1015.65
2018-01-06T16:21:36.052Z,1015.68
2018-01-06T16:23:03.275Z,1015.75
2018-01-06T16:24:30.485Z,1015.78
2018-01-06T16:25:57.758Z,1015.82
2018-01-06T16:27:24.821Z,1015.84
2018-01-06T16:28:51.929Z,1015.87
2018-01-06T16:30:19.071Z,1015.91
2018-01-06T16:31:46.258Z,1015.94
2018-01-06T16:33:13.413Z,1015.97
2018-01-06T16:34:41.558Z,1016.02
2018-01-06T16:36:08.119Z,1016.04
2018-01-06T16:37:35.072Z,1016.07
2018-01-06T16:39:02.179Z,1016.12
2018-01-06T16:40:29.506Z,1016.14
2018-01-06T16:41:56.771Z,1016.15
2018-01-06T16:43:24.190Z,1016.18
2018-01-06T16:44:51.254Z,1016.18
2018-01-06T16:46:18.337Z,1016.24
2018-01-06T16:47:45.493Z,1016.28
2018-01-06T16:49:12.894Z,1016.32
2018-01-06T16:50:40.303Z,1016.36
2018-01-06T16:52:07.793Z,1016.39
2018-01-06T16:53:35.393Z,1016.43
2018-01-06T16:55:02.017Z,1016.45
2018-01-06T16:56:29.282Z,1016.50
2018-01-06T16:57:56.545Z,1016.54
2018-01-06T16:59:23.699Z,1016.54
2018-01-06T17:00:50.810Z,1016.57
2018-01-06T17:02:18.173Z,1016.55
2018-01-06T17:03:45.146Z,1016.57
2018-01-06T17:05:12.542Z,1016.64
2018-01-06T17:06:39.750Z,1016.71
2018-01-06T17:08:07.327Z,1016.77
2018-01-06T17:09:34.464Z,1016.78
2018-01-06T17:11:01.394Z,1016.77
2018-01-06T17:12:28.654Z,1016.78
2018-01-06T17:13:55.854Z,1016.84
2018-01-06T17:15:22.865Z,1016.90
2018-01-06T17:16:49.920Z,1016.96
2018-01-06T17:18:17.278Z,1016.96
2018-01-06T17:19:44.387Z,1016.98
2018-01-06T17:21:12.000Z,1017.00
2018-01-06T17:22:39.008Z,1017.00
2018-01-06T17:24:06.335Z,1017.03
2018-01-06T17:25:34.640Z,1017.05
2018-01-06T17:27:00.697Z,1017.07
2018-01-06T17:28:28.018Z,1017.07
2018-01-06T17:29:55.124Z,1017.09
2018-01-06T17:31:22.200Z,1017.12
2018-01-06T17:32:49.384Z,1017.13
2018-01-06T17:34:16.541Z,1017.20
2018-01-06T17:35:43.672Z,1017.21
2018-01-06T17:37:10.933Z,1017.24
2018-01-06T17:38:38.188Z,1017.28
2018-01-06T17:40:05.818Z,1017.31
2018-01-06T17:41:32.783Z,1017.34
2018-01-06T17:42:59.936Z,1017.35
2018-01-06T17:44:27.446Z,1017.36
2018-01-06T17:45:54.402Z,1017.38
2018-01-06T17:47:21.661Z,1017.39
2018-01-06T17:48:48.733Z,1017.40
2018-01-06T17:50:15.577Z,1017.40
2018-01-06T17:51:42.706Z,1017.44
2018-01-06T17:53:10.145Z,1017.46
2018-01-06T17:54:37.645Z,1017.52
2018-01-06T17:56:04.691Z,1017.54
2018-01-06T17:57:31.959Z,1017.55
2018-01-06T17:58:59.242Z,1017.52
2018-01-06T18:00:26.556Z,1017.55
2018-01-06T18:01:53.706Z,1017.57
2018-01-06T18:03:20.809Z,1017.60
2018-01-06T18:04:47.954Z,1017.64
2018-01-06T18:06:15.288Z,1017.67
2018-01-06T18:07:42.421Z,1017.69
2018-01-06T18:09:09.584Z,1017.72
2018-01-06T18:10:36.871Z,1017.76
2018-01-06T18:12:04.126Z,1017.80
2018-01-06T18:13:31.301Z,1017.81
2018-01-06T18:14:58.940Z,1017.83
2018-01-06T18:16:25.857Z,1017.84
2018-01-06T18:17:52.970Z,1017.88
2018-01-06T18:19:20.159Z,1017.93
2018-01-06T18:20:47.352Z,1017.97
2018-01-06T18:22:14.420Z,1018.04
2018-01-06T18:23:42.109Z,1018.09
2018-01-06T18:25:09.223Z,1018.13
2018-01-06T18:26:36.826Z,1018.15
2018-01-06T18:28:04.372Z,1018.17
2018-01-06T18:29:30.758Z,1018.23
2018-01-06T18:30:58.327Z,1018.29
2018-01-06T18:32:25.324Z,1018.34
2018-01-06T18:33:52.463Z,1018.44
2018-01-06T18:35:19.461Z,1018.47
2018-01-06T18:36:46.656Z,1018.45
2018-01-06T18:38:13.770Z,1018.46
2018-01-06T18:39:41.133Z,1018.54
2018-01-06T18:41:08.585Z,1018.57
2018-01-06T18:42:36.027Z,1018.62
2018-01-06T18:44:02.864Z,1018.60
2018-01-06T18:45:30.041Z,1018.59
2018-01-06T18:46:57.361Z,1018.60
2018-01-06T18:48:24.387Z,1018.66